Time;durP1;ratioP1;P1;durP2;ratioP2;P2;SDS_P1;SDS_P2;PMS_P1;PMS_P2;Temp;Humidity;BMP_temperature;BMP_pressure;BME280_temperature;BME280_humidity;BME280_pressure;Samples;Min_cycle;Max_cycle;Signal;HPM_P1;HPM_P2
2022/08/18 00:01:21;;;;;;;58.13;48.50;;;19.90;99.90;;;;;;5092441;28;20174;-83
2022/08/18 00:03:48;;;;;;;56.53;50.50;;;19.80;99.90;;;;;;5093623;28;20430;-84
2022/08/18 00:06:14;;;;;;;57.63;47.67;;;19.80;99.90;;;;;;5075152;28;20458;-83
2022/08/18 00:08:39;;;;;;;56.53;49.23;;;19.80;99.90;;;;;;5071654;28;20435;-84
2022/08/18 00:11:05;;;;;;;59.37;47.43;;;19.70;99.90;;;;;;5094050;28;20940;-84
2022/08/18 00:13:32;;;;;;;59.27;48.97;;;19.70;99.90;;;;;;5075911;28;20199;-83
2022/08/18 00:15:58;;;;;;;60.63;49.80;;;19.60;99.90;;;;;;5070526;28;20462;-83
2022/08/18 00:18:23;;;;;;;55.00;47.00;;;19.50;99.90;;;;;;5092761;28;20501;-84
2022/08/18 00:20:49;;;;;;;62.83;54.53;;;19.50;99.90;;;;;;5069320;28;20183;-83
2022/08/18 00:23:14;;;;;;;57.90;50.60;;;19.40;99.90;;;;;;5087729;28;20226;-84
2022/08/18 00:25:40;;;;;;;56.40;50.03;;;19.40;99.90;;;;;;5088297;28;20684;-84
2022/08/18 00:28:05;;;;;;;57.70;49.57;;;19.40;99.90;;;;;;5095448;28;20175;-84
2022/08/18 00:30:32;;;;;;;52.90;47.10;;;19.30;99.90;;;;;;5087661;28;20184;-83
2022/08/18 00:32:59;;;;;;;55.37;47.23;;;19.30;99.90;;;;;;5096032;28;20250;-83
2022/08/18 00:35:29;;;;;;;54.90;47.73;;;19.30;99.90;;;;;;5071327;28;20965;-84
2022/08/18 00:37:57;;;;;;;57.17;49.37;;;19.30;99.90;;;;;;5071940;28;20429;-83
2022/08/18 00:40:29;;;;;;;56.70;48.87;;;19.40;99.90;;;;;;5072407;28;20951;-84
2022/08/18 00:43:00;;;;;;;70.13;51.47;;;19.40;99.90;;;;;;5093006;28;20429;-83
2022/08/18 00:45:31;;;;;;;63.10;51.63;;;19.40;99.90;;;;;;5069759;28;20428;-83
2022/08/18 00:47:57;;;;;;;69.40;55.33;;;19.40;99.90;;;;;;5074141;28;21032;-83
2022/08/18 00:50:31;;;;;;;63.10;53.67;;;19.40;1.00;;;;;;5077255;28;20529;-84
2022/08/18 00:53:03;;;;;;;60.57;51.53;;;19.40;1.00;;;;;;5085486;28;20432;-82
2022/08/18 00:55:32;;;;;;;63.73;50.70;;;19.40;1.00;;;;;;5076136;28;20526;-84
2022/08/18 00:58:14;;;;;;;65.17;52.40;;;19.40;1.00;;;;;;5074233;28;20458;-83
2022/08/18 01:00:40;;;;;;;69.77;56.30;;;19.50;1.00;;;;;;5089308;28;20483;-85
2022/08/18 01:03:11;;;;;;;75.27;55.50;;;19.50;1.00;;;;;;5093325;28;20428;-85
2022/08/18 01:05:50;;;;;;;69.70;54.17;;;19.50;1.00;;;;;;5091337;28;20200;-85
2022/08/18 01:08:16;;;;;;;72.63;55.90;;;19.50;1.00;;;;;;5075180;28;20474;-84
2022/08/18 01:10:42;;;;;;;76.80;56.23;;;19.50;1.00;;;;;;5094673;28;20431;-85
2022/08/18 01:13:08;;;;;;;80.37;57.87;;;19.50;1.00;;;;;;5090111;28;20426;-85
2022/08/18 01:15:35;;;;;;;79.60;56.20;;;19.50;1.00;;;;;;5090911;28;20834;-85
2022/08/18 01:23:54;;;;;;;72.43;56.40;;;19.40;1.00;;;;;;5090466;28;20456;-85
2022/08/18 01:26:23;;;;;;;71.17;54.30;;;19.30;1.00;;;;;;5087172;28;21353;-85
2022/08/18 01:28:49;;;;;;;65.17;53.77;;;19.30;1.00;;;;;;5078158;28;20470;-84
2022/08/18 01:31:37;;;;;;;63.87;51.77;;;19.20;1.00;;;;;;5070160;28;20440;-84
2022/08/18 01:34:08;;;;;;;63.77;52.60;;;19.20;1.00;;;;;;5068220;28;22047;-85
2022/08/18 01:36:37;;;;;;;65.03;51.10;;;19.20;1.00;;;;;;5071444;28;20979;-85
2022/08/18 01:39:05;;;;;;;63.37;51.50;;;19.10;1.00;;;;;;5067422;28;20434;-84
2022/08/18 01:41:31;;;;;;;64.97;52.13;;;19.10;1.00;;;;;;5073560;28;20436;-85
2022/08/18 01:44:00;;;;;;;66.47;52.37;;;19.00;1.00;;;;;;5091930;28;20444;-87
2022/08/18 01:46:28;;;;;;;63.50;50.90;;;19.10;1.00;;;;;;5066996;28;20216;-85
2022/08/18 01:48:54;;;;;;;66.20;51.23;;;19.00;1.00;;;;;;5072283;28;20443;-85
2022/08/18 01:51:20;;;;;;;67.03;52.40;;;19.00;1.00;;;;;;5083338;28;20491;-85
2022/08/18 01:53:47;;;;;;;70.83;54.40;;;19.00;1.00;;;;;;5089895;28;20467;-85
2022/08/18 01:56:16;;;;;;;74.23;55.27;;;19.00;1.00;;;;;;5093071;28;20469;-85
2022/08/18 01:58:43;;;;;;;82.83;58.57;;;19.10;1.00;;;;;;5071402;28;20917;-85
2022/08/18 02:01:11;;;;;;;78.77;57.00;;;19.10;1.00;;;;;;5088622;28;20428;-85
2022/08/18 02:03:45;;;;;;;97.27;61.70;;;19.10;1.00;;;;;;5070509;28;20435;-85
2022/08/18 02:06:13;;;;;;;88.90;59.90;;;19.10;1.00;;;;;;5071765;28;20515;-84
2022/08/18 02:08:38;;;;;;;91.10;63.37;;;19.10;1.00;;;;;;5073990;28;20454;-85
2022/08/18 02:11:05;;;;;;;94.97;61.97;;;19.10;1.00;;;;;;5068667;28;20435;-87
2022/08/18 02:13:32;;;;;;;97.90;62.77;;;19.10;1.00;;;;;;5093118;28;20205;-84
2022/08/18 02:15:59;;;;;;;91.30;61.87;;;19.10;1.00;;;;;;5075329;28;20468;-87
2022/08/18 02:18:27;;;;;;;83.70;57.80;;;19.10;1.00;;;;;;5068146;28;20526;-85
2022/08/18 02:20:54;;;;;;;81.57;56.93;;;19.20;1.00;;;;;;5091964;28;20520;-86
2022/08/18 02:23:19;;;;;;;80.20;57.73;;;19.20;1.00;;;;;;5074188;28;20442;-85
2022/08/18 02:25:45;;;;;;;75.20;56.37;;;19.20;1.00;;;;;;5071930;28;20464;-86
2022/08/18 02:28:11;;;;;;;72.93;54.27;;;19.20;1.00;;;;;;5094520;28;20362;-86
2022/08/18 02:30:37;;;;;;;78.13;56.47;;;19.20;1.00;;;;;;5095122;28;20188;-85
2022/08/18 02:33:04;;;;;;;74.37;55.60;;;19.20;1.00;;;;;;5084316;28;20443;-87
2022/08/18 02:35:31;;;;;;;81.97;57.60;;;19.20;1.00;;;;;;5071208;28;20479;-86
2022/08/18 02:38:00;;;;;;;85.37;55.90;;;19.30;1.00;;;;;;5089759;28;20942;-85
2022/08/18 02:40:27;;;;;;;81.50;56.10;;;19.30;1.00;;;;;;5067728;28;20483;-85
2022/08/18 02:42:53;;;;;;;90.43;60.23;;;19.30;1.00;;;;;;5073755;28;20457;-85
2022/08/18 02:45:19;;;;;;;96.53;61.00;;;19.30;1.00;;;;;;5069881;28;20427;-85
2022/08/18 02:47:54;;;;;;;90.67;59.60;;;19.30;1.00;;;;;;5070047;28;20446;-85
2022/08/18 02:50:20;;;;;;;101.20;63.10;;;19.40;1.00;;;;;;5066585;28;20454;-85
2022/08/18 02:52:45;;;;;;;108.77;62.90;;;19.40;1.00;;;;;;5080208;28;20489;-85
2022/08/18 02:55:12;;;;;;;99.40;63.77;;;19.40;1.00;;;;;;5071974;28;20462;-86
2022/08/18 02:57:43;;;;;;;96.20;62.80;;;19.40;1.00;;;;;;5066887;28;20217;-86
2022/08/18 03:00:11;;;;;;;105.60;63.63;;;19.40;1.00;;;;;;5081412;28;20490;-86
2022/08/18 03:02:37;;;;;;;100.87;61.40;;;19.40;1.00;;;;;;5069258;28;20444;-84
2022/08/18 03:05:04;;;;;;;103.00;63.27;;;19.40;1.00;;;;;;5097481;28;20438;-85
2022/08/18 03:07:29;;;;;;;101.83;64.30;;;19.40;1.00;;;;;;5063808;28;20212;-85
2022/08/18 03:09:55;;;;;;;98.57;62.60;;;19.30;1.00;;;;;;5092355;28;20509;-84
2022/08/18 03:12:20;;;;;;;95.70;57.73;;;19.30;1.00;;;;;;5090066;28;20198;-87
2022/08/18 03:14:46;;;;;;;86.90;55.67;;;19.20;1.00;;;;;;5088261;28;20783;-85
2022/08/18 03:17:13;;;;;;;80.53;56.10;;;19.20;1.00;;;;;;5075573;28;20238;-85
2022/08/18 03:19:39;;;;;;;88.37;58.20;;;19.10;1.00;;;;;;5093139;28;20181;-86
2022/08/18 03:22:07;;;;;;;94.17;59.00;;;19.10;1.00;;;;;;5087351;28;20463;-87
2022/08/18 03:24:33;;;;;;;95.27;59.57;;;19.10;1.00;;;;;;5085652;28;20443;-85
2022/08/18 03:27:02;;;;;;;87.23;57.57;;;19.10;1.00;;;;;;5068066;28;20548;-86
2022/08/18 03:29:28;;;;;;;94.43;59.70;;;19.10;1.00;;;;;;5091388;28;20460;-86
2022/08/18 03:31:54;;;;;;;88.67;57.07;;;19.10;1.00;;;;;;5066825;28;20824;-85
2022/08/18 03:34:20;;;;;;;86.27;55.47;;;19.10;1.00;;;;;;5066476;28;20216;-85
2022/08/18 03:36:48;;;;;;;94.43;58.73;;;19.10;1.00;;;;;;5067121;28;20599;-85
2022/08/18 03:39:13;;;;;;;96.77;57.03;;;19.20;1.00;;;;;;5092226;28;20589;-85
2022/08/18 03:41:44;;;;;;;92.90;57.20;;;19.20;1.00;;;;;;5067312;28;20434;-85
2022/08/18 03:44:12;;;;;;;96.30;59.37;;;19.20;1.00;;;;;;5091445;28;20175;-86
2022/08/18 03:46:40;;;;;;;95.10;58.50;;;19.10;1.00;;;;;;5068086;28;20456;-85
2022/08/18 03:49:06;;;;;;;91.30;55.40;;;19.10;1.00;;;;;;5067971;28;20457;-85
2022/08/18 03:51:32;;;;;;;90.33;54.63;;;19.10;1.00;;;;;;5071245;28;20443;-84
2022/08/18 03:54:00;;;;;;;86.47;53.63;;;19.10;1.00;;;;;;5070532;28;20198;-85
2022/08/18 03:56:32;;;;;;;85.47;54.43;;;19.10;1.00;;;;;;5088253;28;20991;-85
2022/08/18 03:59:01;;;;;;;86.10;53.30;;;19.10;1.00;;;;;;5089196;28;20428;-85
2022/08/18 04:01:31;;;;;;;86.57;52.63;;;19.10;1.00;;;;;;5067724;28;20521;-85
2022/08/18 04:04:01;;;;;;;80.17;50.73;;;19.10;1.00;;;;;;5073105;28;20531;-85
2022/08/18 04:06:32;;;;;;;79.07;47.60;;;19.10;1.00;;;;;;5070265;28;20465;-85
2022/08/18 04:09:00;;;;;;;69.50;46.07;;;19.10;1.00;;;;;;5089646;28;20454;-86
2022/08/18 04:11:30;;;;;;;76.70;49.60;;;19.10;1.00;;;;;;5090366;28;20442;-84
2022/08/18 04:13:56;;;;;;;72.43;48.80;;;19.20;1.00;;;;;;5068019;28;20459;-85
2022/08/18 04:16:24;;;;;;;75.37;48.00;;;19.20;1.00;;;;;;5068390;28;20451;-84
2022/08/18 04:18:49;;;;;;;76.40;49.17;;;19.20;1.00;;;;;;5090429;28;20425;-84
2022/08/18 04:21:15;;;;;;;79.10;50.00;;;19.20;1.00;;;;;;5066612;28;20431;-85
2022/08/18 04:23:41;;;;;;;72.70;48.60;;;19.20;1.00;;;;;;5067290;28;20190;-85
2022/08/18 04:26:08;;;;;;;75.43;48.53;;;19.20;1.00;;;;;;5068949;28;20204;-85
2022/08/18 04:28:37;;;;;;;81.13;50.73;;;19.10;1.00;;;;;;5068727;28;20453;-86
2022/08/18 04:31:08;;;;;;;78.03;49.63;;;19.20;1.00;;;;;;5077181;28;20494;-85
2022/08/18 04:33:34;;;;;;;76.47;50.67;;;19.10;1.00;;;;;;5072270;28;20469;-85
2022/08/18 04:36:15;;;;;;;81.20;49.37;;;19.10;1.00;;;;;;5066512;28;20516;-88
2022/08/18 04:38:42;;;;;;;76.77;49.40;;;19.20;1.00;;;;;;5089744;28;20492;-85
2022/08/18 04:41:12;;;;;;;76.67;49.07;;;19.10;1.00;;;;;;5087369;28;20465;-85
2022/08/18 04:43:39;;;;;;;79.53;48.43;;;19.20;1.00;;;;;;5095269;28;20438;-84
2022/08/18 04:46:05;;;;;;;73.70;47.13;;;19.20;1.00;;;;;;5068701;28;20471;-85
2022/08/18 04:48:39;;;;;;;70.43;45.00;;;19.20;1.00;;;;;;5075945;28;20470;-86
2022/08/18 04:51:12;;;;;;;75.93;47.87;;;19.20;1.00;;;;;;5073622;28;20521;-85
2022/08/18 04:53:44;;;;;;;70.47;44.97;;;19.30;1.00;;;;;;5078354;28;20479;-85
2022/08/18 04:56:26;;;;;;;71.07;46.17;;;19.30;1.00;;;;;;5066679;28;20462;-85
2022/08/18 04:58:53;;;;;;;73.43;45.67;;;19.40;1.00;;;;;;5073667;28;20442;-85
2022/08/18 05:01:21;;;;;;;66.17;45.67;;;19.40;1.00;;;;;;5089392;28;20430;-85
2022/08/18 05:03:49;;;;;;;72.97;46.40;;;19.50;1.00;;;;;;5075442;28;20432;-85
2022/08/18 05:06:14;;;;;;;68.70;43.67;;;19.50;1.00;;;;;;5094699;28;20450;-84
2022/08/18 05:08:40;;;;;;;74.60;47.53;;;19.50;1.00;;;;;;5099204;28;20454;-85
2022/08/18 05:11:06;;;;;;;68.43;46.30;;;19.50;1.00;;;;;;5091910;28;20218;-85
2022/08/18 05:13:31;;;;;;;67.40;44.90;;;19.50;1.00;;;;;;5066254;28;20718;-86
2022/08/18 05:16:05;;;;;;;66.97;47.00;;;19.60;1.00;;;;;;5076199;28;20236;-85
2022/08/18 05:18:32;;;;;;;64.23;44.83;;;19.60;1.00;;;;;;5078488;28;20209;-85
2022/08/18 05:20:59;;;;;;;69.97;46.80;;;19.70;1.00;;;;;;5088420;28;20890;-85
2022/08/18 05:23:27;;;;;;;62.27;43.10;;;19.70;1.00;;;;;;5076367;28;20454;-85
2022/08/18 05:25:57;;;;;;;66.50;44.47;;;19.70;1.00;;;;;;5070994;28;20514;-87
2022/08/18 05:28:22;;;;;;;65.60;45.40;;;19.80;1.00;;;;;;5071569;28;20436;-85
2022/08/18 05:30:48;;;;;;;66.13;46.20;;;19.80;1.00;;;;;;5066223;28;20430;-85
2022/08/18 05:33:14;;;;;;;66.63;43.10;;;19.90;1.00;;;;;;5089676;28;20224;-85
2022/08/18 05:35:47;;;;;;;62.67;42.60;;;19.90;1.00;;;;;;5065028;28;20264;-85
2022/08/18 05:38:31;;;;;;;64.00;44.53;;;19.90;1.00;;;;;;5075791;28;20654;-85
2022/08/18 05:41:28;;;;;;;64.40;43.40;;;20.00;1.00;;;;;;5068973;28;20454;-85
2022/08/18 05:43:55;;;;;;;60.97;43.27;;;20.10;1.00;;;;;;5075003;28;20440;-86
2022/08/18 05:46:31;;;;;;;60.87;42.00;;;20.20;1.00;;;;;;5085057;28;20454;-85
2022/08/18 05:48:56;;;;;;;61.87;42.60;;;20.20;1.00;;;;;;5090798;28;20435;-85
2022/08/18 05:51:31;;;;;;;67.33;43.47;;;20.20;1.00;;;;;;5085755;28;20410;-85
2022/08/18 05:56:46;;;;;;;60.00;43.47;;;20.30;1.00;;;;;;5092379;28;20563;-85
2022/08/18 05:59:27;;;;;;;58.00;41.50;;;20.40;1.00;;;;;;5072908;28;20945;-85
2022/08/18 06:01:59;;;;;;;56.60;39.47;;;20.40;1.00;;;;;;5074848;28;20471;-84
2022/08/18 06:04:44;;;;;;;56.07;39.03;;;20.40;1.00;;;;;;5084224;28;20431;-84
2022/08/18 06:07:14;;;;;;;56.90;38.13;;;20.50;1.00;;;;;;5072687;28;20456;-84
2022/08/18 06:09:49;;;;;;;57.13;40.17;;;20.50;1.00;;;;;;5062771;28;20475;-84
2022/08/18 06:12:33;;;;;;;53.70;40.47;;;20.50;1.00;;;;;;5068081;28;20424;-85
2022/08/18 06:15:23;;;;;;;55.80;40.80;;;20.50;1.00;;;;;;5078668;28;20816;-85
2022/08/18 06:18:26;;;;;;;54.37;39.87;;;20.50;1.00;;;;;;5068462;28;20435;-84
2022/08/18 06:21:36;;;;;;;56.93;40.00;;;20.50;1.00;;;;;;5090810;28;20440;-86
2022/08/18 06:24:28;;;;;;;56.07;41.07;;;20.40;1.00;;;;;;5082279;28;20436;-84
2022/08/18 06:26:55;;;;;;;59.60;41.47;;;20.40;1.00;;;;;;5088458;28;20551;-84
2022/08/18 06:29:50;;;;;;;58.57;41.37;;;20.40;1.00;;;;;;5066923;28;20519;-84
2022/08/18 06:32:28;;;;;;;60.27;40.90;;;20.40;1.00;;;;;;5082947;28;20522;-85
2022/08/18 06:35:32;;;;;;;56.07;38.20;;;20.40;1.00;;;;;;5067617;28;20844;-86
2022/08/18 06:41:18;;;;;;;60.17;41.03;;;20.40;1.00;;;;;;5087074;28;20420;-86
2022/08/18 06:44:09;;;;;;;54.00;41.13;;;20.40;1.00;;;;;;5090251;28;20461;-86
2022/08/18 06:46:54;;;;;;;55.87;38.93;;;20.50;1.00;;;;;;5063198;28;21203;-86
2022/08/18 06:49:41;;;;;;;57.50;39.13;;;20.50;1.00;;;;;;5064585;28;20437;-86
2022/08/18 06:52:30;;;;;;;51.60;36.23;;;20.50;1.00;;;;;;5058084;28;20438;-86
2022/08/18 06:55:03;;;;;;;57.67;40.83;;;20.60;1.00;;;;;;5086071;28;20473;-86
2022/08/18 06:57:38;;;;;;;53.60;39.17;;;20.60;1.00;;;;;;5064174;28;20472;-87
2022/08/18 07:00:07;;;;;;;54.97;40.43;;;20.60;1.00;;;;;;5067601;28;20524;-86
2022/08/18 07:02:50;;;;;;;56.07;41.60;;;20.70;1.00;;;;;;5081236;28;20524;-86
2022/08/18 07:05:20;;;;;;;52.40;38.47;;;20.70;1.00;;;;;;5086166;28;20823;-88
2022/08/18 07:08:00;;;;;;;57.57;41.50;;;20.70;1.00;;;;;;5091176;28;20437;-86
2022/08/18 07:10:38;;;;;;;57.17;40.20;;;20.80;1.00;;;;;;5065229;28;20940;-87
2022/08/18 07:13:25;;;;;;;58.10;38.77;;;20.80;1.00;;;;;;5069514;28;21005;-86
2022/08/18 07:16:12;;;;;;;55.13;39.63;;;20.80;1.00;;;;;;5087167;28;20454;-86
2022/08/18 07:18:37;;;;;;;55.33;40.70;;;20.80;99.90;;;;;;5091059;28;20422;-86
2022/08/18 07:21:03;;;;;;;51.87;39.03;;;20.80;99.90;;;;;;5072258;28;20835;-86
2022/08/18 07:23:38;;;;;;;51.00;37.90;;;20.80;99.90;;;;;;5065116;28;20180;-87
2022/08/18 07:26:14;;;;;;;56.37;39.27;;;20.80;99.90;;;;;;5089349;28;20444;-87
2022/08/18 07:28:43;;;;;;;51.10;39.53;;;20.80;99.90;;;;;;5085899;28;20450;-88
2022/08/18 07:31:35;;;;;;;55.97;38.70;;;20.80;99.90;;;;;;5091492;28;20420;-86
2022/08/18 07:34:24;;;;;;;59.00;41.87;;;20.80;99.90;;;;;;5067015;28;20834;-84
2022/08/18 07:37:13;;;;;;;60.23;41.07;;;20.80;99.90;;;;;;5085463;28;20463;-87
2022/08/18 07:39:57;;;;;;;54.57;39.50;;;20.80;99.90;;;;;;5065219;28;20953;-87
2022/08/18 07:42:56;;;;;;;56.70;40.70;;;20.80;99.90;;;;;;5066920;28;20520;-86
2022/08/18 07:45:25;;;;;;;65.07;41.77;;;20.80;99.90;;;;;;5058402;28;20437;-87
2022/08/18 07:47:58;;;;;;;55.50;40.30;;;20.80;99.90;;;;;;5066488;28;20495;-87
2022/08/18 07:50:26;;;;;;;53.87;39.77;;;20.80;99.90;;;;;;5062944;28;20480;-87
2022/08/18 07:53:25;;;;;;;54.20;39.33;;;20.80;99.90;;;;;;5069126;28;20442;-86
2022/08/18 07:55:58;;;;;;;55.40;39.87;;;20.90;99.90;;;;;;5066201;28;20466;-85
2022/08/18 07:58:34;;;;;;;55.73;38.67;;;20.90;99.90;;;;;;5061009;28;20437;-85
2022/08/18 08:01:06;;;;;;;48.07;36.53;;;21.00;99.90;;;;;;5075581;28;20835;-86
2022/08/18 08:03:53;;;;;;;47.20;34.80;;;21.10;99.90;;;;;;5083761;28;20792;-85
2022/08/18 08:06:28;;;;;;;47.80;36.10;;;21.30;99.90;;;;;;5072597;28;20434;-86
2022/08/18 08:09:09;;;;;;;44.17;34.07;;;21.50;99.90;;;;;;5068619;28;20807;-86
2022/08/18 08:11:59;;;;;;;40.37;33.90;;;21.70;56.90;;;;;;5069974;28;20515;-87
2022/08/18 08:14:35;;;;;;;40.33;32.40;;;22.00;1.00;;;;;;5069426;28;20448;-87
2022/08/18 08:17:22;;;;;;;29.80;26.10;;;22.30;99.90;;;;;;5073302;28;20456;-86
2022/08/18 08:19:56;;;;;;;31.17;26.80;;;22.40;99.90;;;;;;5069324;28;21025;-84
2022/08/18 08:22:53;;;;;;;30.27;25.13;;;22.50;99.90;;;;;;5091182;28;20433;-85
2022/08/18 08:25:24;;;;;;;28.50;25.03;;;22.50;1.00;;;;;;5083606;28;20492;-85
2022/08/18 08:28:21;;;;;;;30.23;26.17;;;22.50;1.00;;;;;;5089663;28;20806;-85
2022/08/18 08:30:58;;;;;;;27.70;24.80;;;22.60;99.90;;;;;;5083429;28;20440;-86
2022/08/18 08:33:32;;;;;;;29.47;26.27;;;22.70;1.00;;;;;;5086935;28;22158;-85
2022/08/18 08:36:06;;;;;;;29.60;24.13;;;22.80;1.00;;;;;;5067857;28;20460;-86
2022/08/18 08:38:45;;;;;;;30.83;25.27;;;22.80;99.90;;;;;;5068998;28;20432;-85
2022/08/18 08:41:28;;;;;;;25.70;23.10;;;23.00;82.80;;;;;;5091406;28;20420;-85
2022/08/18 08:44:18;;;;;;;27.07;22.40;;;23.20;1.00;;;;;;5067648;28;20487;-85
2022/08/18 08:47:16;;;;;;;25.00;22.37;;;23.30;99.90;;;;;;5020373;28;20799;-85
2022/08/18 08:49:47;;;;;;;27.37;22.77;;;23.30;99.90;;;;;;5059292;28;20449;-84
2022/08/18 08:52:28;;;;;;;24.17;21.87;;;23.30;99.90;;;;;;5083424;28;20433;-84
2022/08/18 08:55:03;;;;;;;26.40;23.70;;;23.50;99.90;;;;;;5081749;28;20488;-84
2022/08/18 08:57:38;;;;;;;26.63;23.83;;;23.90;99.90;;;;;;5081781;28;20494;-84
2022/08/18 09:00:15;;;;;;;25.73;22.13;;;24.40;12.70;;;;;;5086854;28;20413;-84
2022/08/18 09:03:30;;;;;;;23.10;20.57;;;25.60;99.90;;;;;;5062034;28;20438;-84
2022/08/18 09:06:09;;;;;;;22.60;19.80;;;28.70;99.90;;;;;;4974935;28;20509;-85
2022/08/18 09:08:51;;;;;;;20.00;18.03;;;29.90;99.90;;;;;;4978995;28;20446;-88
2022/08/18 09:11:32;;;;;;;18.73;16.93;;;32.80;99.90;;;;;;5062538;28;20442;-85
2022/08/18 09:14:48;;;;;;;18.60;16.83;;;35.90;99.90;;;;;;5080245;28;20466;-86
2022/08/18 09:17:29;;;;;;;16.23;14.63;;;35.90;99.90;;;;;;5062365;28;20515;-86
2022/08/18 09:20:32;;;;;;;15.23;13.93;;;35.10;99.90;;;;;;5065777;28;20441;-86
2022/08/18 09:23:12;;;;;;;14.87;13.47;;;34.10;99.90;;;;;;5060236;28;20469;-85
2022/08/18 09:25:40;;;;;;;12.10;11.00;;;34.30;99.90;;;;;;5066467;28;20477;-87
2022/08/18 09:28:55;;;;;;;11.73;10.77;;;34.60;99.90;;;;;;5094681;28;20505;-84
2022/08/18 09:31:22;;;;;;;11.53;10.27;;;34.90;99.90;;;;;;4986023;28;20434;-85
2022/08/18 09:34:24;;;;;;;9.10;8.30;;;36.30;99.90;;;;;;5075904;28;20434;-85
2022/08/18 09:37:15;;;;;;;9.90;9.00;;;38.30;99.90;;;;;;5081860;28;20461;-86
2022/08/18 09:43:11;;;;;;;8.73;7.93;;;39.60;99.90;;;;;;5078619;28;20484;-84
2022/08/18 09:45:46;;;;;;;9.13;8.43;;;38.70;99.90;;;;;;5052312;28;20486;-83
2022/08/18 09:48:11;;;;;;;7.97;7.27;;;38.00;94.00;;;;;;5082977;28;20429;-84
2022/08/18 09:51:00;;;;;;;8.57;7.63;;;38.70;92.80;;;;;;5062664;28;21032;-83
2022/08/18 09:53:36;;;;;;;10.70;9.90;;;39.30;89.30;;;;;;5085191;28;20611;-83
2022/08/18 09:56:02;;;;;;;9.27;8.57;;;39.20;81.60;;;;;;5084884;28;20456;-83
2022/08/18 09:58:47;;;;;;;8.33;6.73;;;38.50;72.60;;;;;;5065895;28;20453;-83
2022/08/18 10:01:43;;;;;;;8.87;8.07;;;37.70;65.60;;;;;;5082573;28;20513;-83
2022/08/18 10:04:24;;;;;;;10.33;9.53;;;36.60;59.80;;;;;;5067211;28;20458;-82
2022/08/18 10:06:50;;;;;;;10.23;9.20;;;35.40;56.60;;;;;;5064441;28;20454;-83
2022/08/18 10:09:24;;;;;;;9.50;8.50;;;34.80;55.80;;;;;;5068693;28;20438;-85
2022/08/18 10:11:56;;;;;;;9.67;8.90;;;34.20;55.30;;;;;;5082535;28;20430;-83
2022/08/18 10:14:40;;;;;;;10.13;9.13;;;33.60;55.70;;;;;;5059591;28;20855;-82
2022/08/18 10:17:39;;;;;;;10.60;9.60;;;33.00;53.90;;;;;;5064946;28;20977;-83
2022/08/18 10:20:37;;;;;;;11.67;10.57;;;32.20;71.50;;;;;;5072425;28;20434;-86
2022/08/18 10:23:06;;;;;;;9.70;8.90;;;31.80;56.30;;;;;;5068825;28;20489;-85
2022/08/18 10:25:41;;;;;;;9.60;8.77;;;31.50;58.20;;;;;;5075736;28;20508;-88
2022/08/18 10:28:33;;;;;;;10.23;8.40;;;31.30;58.80;;;;;;5105827;28;20426;-85
2022/08/18 10:31:06;;;;;;;8.50;7.57;;;31.20;77.10;;;;;;5087162;28;20434;-85
2022/08/18 10:34:07;;;;;;;7.83;7.07;;;31.20;62.20;;;;;;5062760;28;20535;-85
2022/08/18 10:36:57;;;;;;;8.23;7.27;;;31.50;64.60;;;;;;5080200;28;21155;-85
2022/08/18 10:39:41;;;;;;;8.33;7.63;;;31.90;67.80;;;;;;5073342;28;20422;-84
2022/08/18 10:42:19;;;;;;;9.27;7.40;;;32.00;67.90;;;;;;5071432;28;20493;-86
2022/08/18 10:44:46;;;;;;;8.60;7.80;;;32.00;67.50;;;;;;5071022;28;20465;-85
2022/08/18 10:47:23;;;;;;;8.30;7.67;;;31.80;66.60;;;;;;5064983;28;20446;-85
2022/08/18 10:49:50;;;;;;;8.60;7.80;;;31.60;67.00;;;;;;5067271;28;20492;-86
2022/08/18 10:52:28;;;;;;;9.27;8.40;;;31.60;68.80;;;;;;5087489;28;20832;-85
2022/08/18 10:55:11;;;;;;;9.50;8.70;;;31.60;68.00;;;;;;5066219;28;20437;-84
2022/08/18 10:57:53;;;;;;;9.33;8.17;;;31.60;69.00;;;;;;5062579;28;20476;-87
2022/08/18 11:00:21;;;;;;;10.87;9.33;;;31.40;67.80;;;;;;5069347;28;20516;-85
2022/08/18 11:02:58;;;;;;;10.73;9.73;;;31.30;69.10;;;;;;5060984;28;20473;-85
2022/08/18 11:05:26;;;;;;;9.30;8.30;;;31.30;68.50;;;;;;5085908;28;21722;-85
2022/08/18 11:08:02;;;;;;;10.33;9.20;;;31.30;69.90;;;;;;5062729;28;20426;-86
2022/08/18 11:10:36;;;;;;;11.97;9.30;;;31.30;69.80;;;;;;5064129;28;20475;-87
2022/08/18 11:13:24;;;;;;;7.40;6.77;;;31.60;70.50;;;;;;5061946;28;20914;-85
2022/08/18 11:16:17;;;;;;;7.80;7.10;;;31.80;73.40;;;;;;5069151;28;20498;-85
2022/08/18 11:18:50;;;;;;;9.20;8.30;;;31.80;71.40;;;;;;5088437;28;20426;-85
2022/08/18 11:21:34;;;;;;;7.83;7.20;;;31.50;69.70;;;;;;5084207;28;20434;-85
2022/08/18 11:24:24;;;;;;;8.90;8.10;;;31.20;69.60;;;;;;5066284;28;20494;-84
2022/08/18 11:27:00;;;;;;;8.30;7.50;;;30.90;70.00;;;;;;5069822;28;20449;-85
2022/08/18 11:29:31;;;;;;;8.30;7.10;;;30.90;69.30;;;;;;5062439;28;20794;-84
2022/08/18 11:32:17;;;;;;;8.57;7.70;;;30.80;70.30;;;;;;5081805;28;20489;-85
2022/08/18 11:34:50;;;;;;;8.80;7.23;;;30.70;70.30;;;;;;5083970;28;20422;-85
2022/08/18 11:37:44;;;;;;;7.63;6.93;;;30.60;68.90;;;;;;5078867;28;20465;-84
2022/08/18 11:40:30;;;;;;;7.67;6.97;;;30.40;70.40;;;;;;5086615;28;20803;-85
2022/08/18 11:43:05;;;;;;;9.00;7.57;;;30.30;71.80;;;;;;5083764;28;20517;-85
2022/08/18 11:45:53;;;;;;;9.30;8.50;;;30.20;71.70;;;;;;5083255;28;20457;-86
2022/08/18 11:48:27;;;;;;;12.67;8.13;;;29.90;71.00;;;;;;5087288;28;20418;-85
2022/08/18 11:51:04;;;;;;;7.97;7.20;;;29.80;72.10;;;;;;5064604;28;20975;-85
2022/08/18 11:53:47;;;;;;;8.63;7.83;;;29.80;74.10;;;;;;5058077;28;20840;-85
2022/08/18 11:56:13;;;;;;;7.80;7.20;;;29.70;75.10;;;;;;5064050;28;20502;-86
2022/08/18 11:59:01;;;;;;;8.90;8.10;;;29.70;75.60;;;;;;5057864;28;20435;-85
2022/08/18 12:01:32;;;;;;;12.03;7.30;;;29.90;76.80;;;;;;5087012;28;20266;-85
2022/08/18 12:04:09;;;;;;;7.57;6.87;;;30.00;78.20;;;;;;5060754;28;20550;-85
2022/08/18 12:06:36;;;;;;;9.30;6.63;;;30.30;80.10;;;;;;5067762;28;20524;-86
2022/08/18 12:09:06;;;;;;;9.97;7.40;;;30.80;83.40;;;;;;5066859;28;20452;-86
2022/08/18 12:11:37;;;;;;;8.70;7.20;;;31.10;82.40;;;;;;5064204;28;20453;-86
2022/08/18 12:14:18;;;;;;;7.73;6.80;;;31.40;82.90;;;;;;5058412;28;20656;-86
2022/08/18 12:16:43;;;;;;;8.90;7.17;;;31.50;82.40;;;;;;5076656;28;20826;-86
2022/08/18 12:19:11;;;;;;;6.10;5.43;;;31.40;81.50;;;;;;5082956;28;20433;-86
2022/08/18 12:21:49;;;;;;;7.17;6.57;;;31.40;80.80;;;;;;5063300;28;20668;-85
2022/08/18 12:24:24;;;;;;;6.90;6.30;;;31.20;76.90;;;;;;5066613;28;21044;-85
2022/08/18 12:26:51;;;;;;;10.03;7.20;;;30.80;75.00;;;;;;5067118;28;20453;-86
2022/08/18 12:29:17;;;;;;;9.53;5.70;;;30.60;73.40;;;;;;5064299;28;20418;-86
2022/08/18 12:31:45;;;;;;;8.00;6.37;;;30.50;73.60;;;;;;5087614;28;20428;-88
2022/08/18 12:34:10;;;;;;;9.17;6.63;;;30.50;74.20;;;;;;5066615;28;20954;-90
2022/08/18 12:36:38;;;;;;;6.50;5.93;;;30.50;74.40;;;;;;5063305;28;20500;-86
2022/08/18 12:39:04;;;;;;;7.53;6.70;;;30.40;74.50;;;;;;5068403;28;20189;-85
2022/08/18 12:41:39;;;;;;;8.60;7.27;;;30.40;74.80;;;;;;5067414;28;20418;-88
2022/08/18 12:44:05;;;;;;;8.70;7.50;;;30.40;75.60;;;;;;5066687;28;20465;-86
2022/08/18 12:46:34;;;;;;;7.57;6.43;;;30.40;74.70;;;;;;5062696;28;20454;-85
2022/08/18 12:49:04;;;;;;;7.13;6.43;;;30.30;73.10;;;;;;5062099;28;20200;-85
2022/08/18 12:51:30;;;;;;;9.63;7.33;;;30.20;74.10;;;;;;5064352;28;20467;-85
2022/08/18 12:54:01;;;;;;;9.60;6.20;;;30.30;74.30;;;;;;5069037;28;20482;-86
2022/08/18 12:56:38;;;;;;;7.73;5.83;;;30.40;75.30;;;;;;5066435;28;20859;-86
2022/08/18 12:59:24;;;;;;;7.17;6.47;;;30.70;77.00;;;;;;5080015;28;20448;-85
2022/08/18 13:01:53;;;;;;;8.27;6.00;;;30.90;77.00;;;;;;5064303;28;20422;-85
2022/08/18 13:04:21;;;;;;;7.47;6.60;;;31.00;75.70;;;;;;5060076;28;20466;-85
2022/08/18 13:06:57;;;;;;;8.37;7.17;;;31.00;74.60;;;;;;5074028;28;20438;-86
2022/08/18 13:09:23;;;;;;;7.00;6.30;;;31.10;75.80;;;;;;5081757;28;20444;-85
2022/08/18 13:11:49;;;;;;;8.67;7.33;;;31.40;76.00;;;;;;5073793;28;20418;-85
2022/08/18 13:14:15;;;;;;;6.00;5.50;;;31.80;76.30;;;;;;5070343;28;20817;-85
2022/08/18 13:16:43;;;;;;;6.70;6.00;;;32.10;76.00;;;;;;5084106;28;20453;-85
2022/08/18 13:19:09;;;;;;;6.20;5.70;;;32.30;76.60;;;;;;5063880;28;20426;-86
2022/08/18 13:21:36;;;;;;;10.70;5.77;;;32.50;74.40;;;;;;5067139;28;20965;-86
2022/08/18 13:24:02;;;;;;;6.37;5.70;;;32.50;72.10;;;;;;5081144;28;20465;-85
2022/08/18 13:26:32;;;;;;;5.97;5.53;;;32.50;71.80;;;;;;5062260;28;20489;-85
2022/08/18 13:28:58;;;;;;;6.37;5.77;;;32.50;69.30;;;;;;5083604;28;20469;-86